createdAt,value
2022-08-09T00:00:00.966Z,3.92
2022-08-09T00:02:47.277Z,7.60
2022-08-09T00:06:19.617Z,4.95
2022-08-09T00:08:04.255Z,7.43
2022-08-09T00:10:39.080Z,5.10
2022-08-09T00:13:16.760Z,6.53
2022-08-09T00:15:59.918Z,6.75
2022-08-09T00:18:34.750Z,5.32
2022-08-09T00:21:08.668Z,4.88
2022-08-09T00:23:57.207Z,4.97
2022-08-09T00:26:30.148Z,6.60
2022-08-09T00:29:12.601Z,5.00
2022-08-09T00:31:58.649Z,6.95
2022-08-09T00:34:27.574Z,5.78
2022-08-09T00:37:00.215Z,4.82
2022-08-09T00:40:13.899Z,6.03
2022-08-09T00:44:13.488Z,6.70
2022-08-09T00:45:03.598Z,5.78
2022-08-09T00:47:42.975Z,5.63
2022-08-09T00:50:14.687Z,5.72
2022-08-09T00:52:42.698Z,7.00
2022-08-09T00:55:32.760Z,4.88
2022-08-09T00:57:59.354Z,5.28
2022-08-09T01:00:27.157Z,7.32
2022-08-09T01:03:04.645Z,6.05
2022-08-09T01:06:17.695Z,5.53
2022-08-09T01:09:03.177Z,5.72
2022-08-09T01:12:12.972Z,5.60
2022-08-09T01:14:56.080Z,5.13
2022-08-09T01:17:30.734Z,5.32
2022-08-09T01:20:07.060Z,6.50
2022-08-09T01:22:54.847Z,5.93
2022-08-09T01:26:33.101Z,6.72
2022-08-09T01:29:04.009Z,5.88
2022-08-09T01:32:29.115Z,4.55
2022-08-09T01:34:23.141Z,6.47
2022-08-09T01:36:52.388Z,5.68
2022-08-09T01:39:23.107Z,6.72
2022-08-09T01:41:55.656Z,5.95
2022-08-09T01:44:30.690Z,5.38
2022-08-09T01:47:00.143Z,5.07
2022-08-09T01:49:38.893Z,6.63
2022-08-09T01:52:12.629Z,6.55
2022-08-09T01:54:51.149Z,6.18
2022-08-09T01:57:31.932Z,6.30
2022-08-09T02:00:35.063Z,6.53
2022-08-09T02:02:58.520Z,6.47
2022-08-09T02:05:38.223Z,5.93
2022-08-09T02:08:39.748Z,8.07
2022-08-09T02:11:16.740Z,6.22
2022-08-09T02:14:06.409Z,7.18
2022-08-09T02:16:53.157Z,5.70
2022-08-09T02:19:38.569Z,7.20
2022-08-09T02:22:50.486Z,7.90
2022-08-09T02:25:30.887Z,7.95
2022-08-09T02:28:11.406Z,5.72
2022-08-09T02:30:55.383Z,6.03
2022-08-09T02:33:38.313Z,6.65
2022-08-09T02:36:37.849Z,6.05
2022-08-09T02:39:19.722Z,6.88
2022-08-09T02:41:56.804Z,7.55
2022-08-09T02:44:41.556Z,6.32
2022-08-09T02:47:13.945Z,6.13
2022-08-09T02:49:55.495Z,7.60
2022-08-09T02:52:43.412Z,8.65
2022-08-09T02:55:20.813Z,6.88
2022-08-09T02:58:00.233Z,6.38
2022-08-09T03:00:57.658Z,6.30
2022-08-09T03:04:12.371Z,5.97
2022-08-09T03:06:16.658Z,6.88
2022-08-09T03:08:46.503Z,6.18
2022-08-09T03:11:30.185Z,9.88
2022-08-09T03:14:07.843Z,7.70
2022-08-09T03:16:41.819Z,6.22
2022-08-09T03:19:14.087Z,4.88
2022-08-09T03:22:03.271Z,6.20
2022-08-09T03:24:42.764Z,6.35
2022-08-09T03:27:21.681Z,9.95
2022-08-09T03:29:57.994Z,5.82
2022-08-09T03:32:34.277Z,6.25
2022-08-09T03:35:24.394Z,7.45
2022-08-09T03:37:56.180Z,7.82
2022-08-09T03:40:25.893Z,6.43
2022-08-09T03:42:58.375Z,8.63
2022-08-09T03:46:03.005Z,6.93
2022-08-09T03:48:19.053Z,6.28
2022-08-09T03:50:59.075Z,6.68
2022-08-09T03:53:32.289Z,5.97
2022-08-09T03:56:05.888Z,6.53
2022-08-09T03:58:33.554Z,7.13
2022-08-09T04:01:01.612Z,6.53
2022-08-09T04:03:46.417Z,5.28
2022-08-09T04:06:16.708Z,7.95
2022-08-09T04:08:46.778Z,6.45
2022-08-09T04:11:14.155Z,6.22
2022-08-09T04:14:37.280Z,6.32
2022-08-09T04:16:28.106Z,6.85
2022-08-09T04:18:55.583Z,7.47
2022-08-09T04:21:24.335Z,7.15
2022-08-09T04:23:54.424Z,5.72
2022-08-09T04:26:25.281Z,7.28
2022-08-09T04:29:10.798Z,6.18
2022-08-09T04:31:46.884Z,6.63
2022-08-09T04:34:18.796Z,6.57
2022-08-09T04:36:57.598Z,6.68
2022-08-09T04:39:24.731Z,6.50
2022-08-09T04:41:59.755Z,6.63
2022-08-09T04:44:29.698Z,6.82
2022-08-09T04:47:04.346Z,8.57
2022-08-09T04:49:53.416Z,6.35
2022-08-09T04:52:32.542Z,6.00
2022-08-09T04:55:02.611Z,6.00
2022-08-09T04:57:59.045Z,6.50
2022-08-09T05:00:22.301Z,5.78
2022-08-09T05:02:52.729Z,5.95
2022-08-09T05:05:32.109Z,6.00
2022-08-09T05:08:08.596Z,6.50
2022-08-09T05:10:36.657Z,7.43
2022-08-09T05:13:04.207Z,5.47
2022-08-09T05:15:39.172Z,8.93
2022-08-09T05:18:39.621Z,7.20
2022-08-09T05:20:57.880Z,7.32
2022-08-09T05:23:54.288Z,8.15
2022-08-09T05:26:22.297Z,7.80
2022-08-09T05:28:59.086Z,7.78
2022-08-09T05:31:44.998Z,9.07
2022-08-09T05:34:16.522Z,9.07
2022-08-09T05:36:46.790Z,7.53
2022-08-09T05:39:28.434Z,8.35
2022-08-09T05:41:56.528Z,7.72
2022-08-09T05:44:32.915Z,9.07
2022-08-09T05:47:05.608Z,8.45
2022-08-09T05:50:31.204Z,9.25
2022-08-09T05:52:22.301Z,9.77
2022-08-09T05:54:52.046Z,10.05
2022-08-09T05:57:19.453Z,8.82
2022-08-09T05:59:52.293Z,10.15
2022-08-09T06:02:20.316Z,10.38
2022-08-09T06:04:49.030Z,9.73
2022-08-09T06:07:21.974Z,11.73
2022-08-09T06:10:01.721Z,11.75
2022-08-09T06:12:30.421Z,10.68
2022-08-09T06:15:01.129Z,9.68
2022-08-09T06:17:40.004Z,9.23
2022-08-09T06:20:08.801Z,10.07
2022-08-09T06:22:36.724Z,9.70
2022-08-09T06:25:04.910Z,9.93
2022-08-09T06:27:43.178Z,10.73
2022-08-09T06:30:19.188Z,8.48
2022-08-09T06:33:00.212Z,11.60
2022-08-09T06:35:35.777Z,9.25
2022-08-09T06:38:24.100Z,12.02
2022-08-09T06:41:03.623Z,11.10
2022-08-09T06:43:34.195Z,10.13
2022-08-09T06:46:07.908Z,8.60
2022-08-09T06:48:42.600Z,13.85
2022-08-09T06:51:11.755Z,14.07
2022-08-09T06:53:39.751Z,16.05
2022-08-09T06:56:09.266Z,8.50
2022-08-09T07:00:52.320Z,14.48
2022-08-09T07:01:27.729Z,6.10
2022-08-09T07:04:19.640Z,8.68
2022-08-09T07:06:53.445Z,9.60
2022-08-09T07:09:54.874Z,6.15
2022-08-09T07:12:17.996Z,8.73
2022-08-09T07:15:53.229Z,6.60
2022-08-09T07:17:56.011Z,4.70
2022-08-09T07:20:25.859Z,4.07
2022-08-09T07:22:54.354Z,5.45
2022-08-09T07:25:21.946Z,6.45
2022-08-09T07:27:53.323Z,4.38
2022-08-09T07:30:21.748Z,4.60
2022-08-09T07:32:52.457Z,4.47
2022-08-09T07:35:19.709Z,4.70
2022-08-09T07:37:48.083Z,6.35
2022-08-09T07:40:27.073Z,5.05
2022-08-09T07:42:59.813Z,5.53
2022-08-09T07:45:39.489Z,4.30
2022-08-09T07:48:28.451Z,3.88
2022-08-09T07:51:09.949Z,4.30
2022-08-09T07:54:06.236Z,5.38
2022-08-09T07:56:45.176Z,6.32
2022-08-09T07:59:34.790Z,3.25
2022-08-09T08:02:10.273Z,3.88
2022-08-09T08:04:48.533Z,5.72
2022-08-09T08:08:42.387Z,3.10
2022-08-09T08:10:08.720Z,3.58
2022-08-09T08:12:45.045Z,5.28
2022-08-09T08:15:17.644Z,3.60
2022-08-09T08:17:58.041Z,3.38
2022-08-09T08:20:32.227Z,4.72
2022-08-09T08:23:06.536Z,3.13
2022-08-09T08:25:46.646Z,4.13
2022-08-09T08:28:18.156Z,3.60
2022-08-09T08:30:53.342Z,3.15
2022-08-09T08:33:23.861Z,2.97
2022-08-09T08:35:58.894Z,3.15
2022-08-09T08:38:29.596Z,3.45
2022-08-09T08:40:58.104Z,2.40
2022-08-09T08:43:27.131Z,3.20
2022-08-09T08:46:31.649Z,4.60
2022-08-09T08:48:53.995Z,4.15
2022-08-09T08:51:23.173Z,4.60
2022-08-09T08:54:04.318Z,2.42
2022-08-09T08:56:37.750Z,2.40
2022-08-09T08:59:19.268Z,2.60
2022-08-09T09:01:53.162Z,4.78
2022-08-09T09:04:37.792Z,2.25
2022-08-09T09:07:17.034Z,3.92
2022-08-09T09:10:01.919Z,3.70
2022-08-09T09:12:34.301Z,3.17
2022-08-09T09:15:06.255Z,2.33
2022-08-09T09:17:49.232Z,2.83
2022-08-09T09:20:21.280Z,3.92
2022-08-09T09:23:01.982Z,4.28
2022-08-09T09:26:03.276Z,2.03
2022-08-09T09:29:02.136Z,2.40
2022-08-09T09:31:17.606Z,4.70
2022-08-09T09:34:15.290Z,1.80
2022-08-09T09:36:50.958Z,2.42
2022-08-09T09:39:42.906Z,2.22
2022-08-09T09:42:24.892Z,2.50
2022-08-09T09:45:26.895Z,2.30
2022-08-09T09:48:03.401Z,2.45
2022-08-09T09:50:50.785Z,2.80
2022-08-09T09:53:43.708Z,2.63
2022-08-09T09:56:19.978Z,2.22
2022-08-09T09:58:59.022Z,2.13
2022-08-09T10:01:36.991Z,1.75
2022-08-09T10:04:22.830Z,2.05
2022-08-09T10:07:03.232Z,1.77
2022-08-09T10:09:55.048Z,1.40
2022-08-09T10:12:43.544Z,1.48
2022-08-09T10:15:17.760Z,1.70
2022-08-09T10:17:56.091Z,1.55
2022-08-09T10:20:32.839Z,2.45
2022-08-09T10:23:21.984Z,1.83
2022-08-09T10:26:07.794Z,1.60
2022-08-09T10:28:40.402Z,2.38
2022-08-09T10:34:10.545Z,2.47
2022-08-09T10:36:51.629Z,2.38
2022-08-09T10:39:19.906Z,4.00
2022-08-09T10:41:48.271Z,2.15
2022-08-09T10:44:21.644Z,1.77
2022-08-09T10:48:12.655Z,1.65
2022-08-09T10:51:07.704Z,1.75
2022-08-09T10:54:06.615Z,3.15
2022-08-09T10:56:42.352Z,3.10
2022-08-09T10:59:31.261Z,2.90
2022-08-09T11:03:14.173Z,2.03
2022-08-09T11:05:25.321Z,2.83
2022-08-09T11:07:59.473Z,1.98
2022-08-09T11:10:47.296Z,2.40
2022-08-09T11:13:50.589Z,1.27
2022-08-09T11:16:38.271Z,2.83
2022-08-09T11:19:07.826Z,4.38
2022-08-09T11:22:04.992Z,1.60
2022-08-09T11:24:57.751Z,1.70
2022-08-09T11:28:07.927Z,3.00
2022-08-09T11:30:33.669Z,1.52
2022-08-09T11:35:53.296Z,2.00
2022-08-09T11:38:32.993Z,4.00
2022-08-09T11:41:16.035Z,2.45
2022-08-09T11:43:48.981Z,1.33
2022-08-09T11:46:18.422Z,1.23
2022-08-09T11:48:59.190Z,1.60
2022-08-09T11:53:02.870Z,3.50
2022-08-09T11:54:28.060Z,3.67
2022-08-09T11:57:55.529Z,1.65
2022-08-09T12:00:29.537Z,2.72
2022-08-09T12:03:00.509Z,2.15
2022-08-09T12:05:49.132Z,1.63
2022-08-09T12:08:20.004Z,2.95
2022-08-09T12:11:01.539Z,1.83
2022-08-09T12:14:09.787Z,1.20
2022-08-09T12:16:37.961Z,1.70
2022-08-09T12:19:12.223Z,2.00
2022-08-09T12:21:50.671Z,3.10
2022-08-09T12:24:25.683Z,2.35
2022-08-09T12:29:00.216Z,2.17
2022-08-09T12:30:01.541Z,1.70
2022-08-09T12:32:44.340Z,1.55
2022-08-09T12:35:19.464Z,1.40
2022-08-09T12:37:50.110Z,1.58
2022-08-09T12:40:18.834Z,1.10
2022-08-09T12:42:50.683Z,3.60
2022-08-09T12:45:33.557Z,1.85
2022-08-09T12:48:20.488Z,3.90
2022-08-09T12:50:56.617Z,1.20
2022-08-09T12:53:40.680Z,2.15
2022-08-09T12:56:43.263Z,3.72
2022-08-09T12:59:14.739Z,1.83
2022-08-09T13:01:48.740Z,2.78
2022-08-09T13:04:37.069Z,1.13
2022-08-09T13:07:19.639Z,2.45
2022-08-09T13:10:04.919Z,1.80
2022-08-09T13:12:32.839Z,2.03
2022-08-09T13:15:09.862Z,2.30
2022-08-09T13:17:58.721Z,2.40
2022-08-09T13:21:03.769Z,3.03
2022-08-09T13:24:07.269Z,1.08
2022-08-09T13:26:39.120Z,1.80
2022-08-09T13:29:12.944Z,2.30
2022-08-09T13:32:13.654Z,1.67
2022-08-09T13:34:47.253Z,1.77
2022-08-09T13:37:50.427Z,2.00
2022-08-09T13:41:52.156Z,1.20
2022-08-09T13:42:55.832Z,1.75
2022-08-09T13:45:32.269Z,1.92
2022-08-09T13:48:10.918Z,2.72
2022-08-09T13:50:38.388Z,1.23
2022-08-09T13:53:07.358Z,2.03
2022-08-09T13:55:35.054Z,3.90
2022-08-09T13:58:05.090Z,3.10
2022-08-09T14:00:48.253Z,1.50
2022-08-09T14:04:00.999Z,1.48
2022-08-09T14:06:11.882Z,1.38
2022-08-09T14:08:46.850Z,1.52
2022-08-09T14:11:16.337Z,2.20
2022-08-09T14:14:22.412Z,2.75
2022-08-09T14:16:31.788Z,2.25
2022-08-09T14:19:01.739Z,1.27
2022-08-09T14:21:29.237Z,2.90
2022-08-09T14:24:10.216Z,2.35
2022-08-09T14:26:51.241Z,2.63
2022-08-09T14:30:04.408Z,5.18
2022-08-09T14:32:11.248Z,3.63
2022-08-09T14:34:42.857Z,1.60
2022-08-09T14:37:10.171Z,2.47
2022-08-09T14:39:46.805Z,2.17
2022-08-09T14:42:30.332Z,1.33
2022-08-09T14:46:39.033Z,1.80
2022-08-09T14:47:58.284Z,2.75
2022-08-09T14:50:30.799Z,2.42
2022-08-09T14:53:06.370Z,2.05
2022-08-09T14:55:57.971Z,4.15
2022-08-09T15:01:31.693Z,1.55
2022-08-09T15:04:20.196Z,1.05
2022-08-09T15:07:11.716Z,1.92
2022-08-09T15:10:07.429Z,2.47
2022-08-09T15:13:03.551Z,2.15
2022-08-09T15:15:51.870Z,3.33
2022-08-09T15:18:39.568Z,3.88
2022-08-09T15:22:01.768Z,2.55
2022-08-09T15:24:36.512Z,3.78
2022-08-09T15:27:05.338Z,1.80
2022-08-09T15:30:58.947Z,1.73
2022-08-09T15:32:29.838Z,2.15
2022-08-09T15:34:59.894Z,2.13
2022-08-09T15:37:38.089Z,1.25
2022-08-09T15:40:25.289Z,1.77
2022-08-09T15:43:13.825Z,1.75
2022-08-09T15:45:52.047Z,5.43
2022-08-09T15:48:30.662Z,3.22
2022-08-09T15:54:05.154Z,2.38
2022-08-09T15:56:35.154Z,1.63
2022-08-09T15:59:03.208Z,1.92
2022-08-09T16:01:35.801Z,1.45
2022-08-09T16:04:04.620Z,3.58
2022-08-09T16:06:37.459Z,2.05
2022-08-09T16:09:06.055Z,5.43
2022-08-09T16:11:33.807Z,3.63
2022-08-09T16:14:06.936Z,1.40
2022-08-09T16:16:42.011Z,2.17
2022-08-09T16:19:15.624Z,2.78
2022-08-09T16:21:51.724Z,1.48
2022-08-09T16:24:33.311Z,2.53
2022-08-09T16:27:02.716Z,4.93
2022-08-09T16:29:37.772Z,1.75
2022-08-09T16:32:34.162Z,2.72
2022-08-09T16:35:04.078Z,3.03
2022-08-09T16:37:53.027Z,1.55
2022-08-09T16:40:29.521Z,1.85
2022-08-09T16:43:03.179Z,1.83
2022-08-09T16:45:30.987Z,2.50
2022-08-09T16:48:39.805Z,1.58
2022-08-09T16:50:58.856Z,2.03
2022-08-09T16:53:32.345Z,3.42
2022-08-09T16:56:05.937Z,1.42
2022-08-09T16:58:39.673Z,2.38
2022-08-09T17:01:12.436Z,2.88
2022-08-09T17:03:39.512Z,2.33
2022-08-09T17:06:31.753Z,2.55
2022-08-09T17:09:17.673Z,2.28
2022-08-09T17:11:53.053Z,1.83
2022-08-09T17:14:26.917Z,1.83
2022-08-09T17:17:02.320Z,3.08
2022-08-09T17:20:04.915Z,1.70
2022-08-09T17:22:24.729Z,2.05
2022-08-09T17:25:03.412Z,1.92
2022-08-09T17:27:38.304Z,1.63
2022-08-09T17:30:12.872Z,4.07
2022-08-09T17:35:14.465Z,1.95
2022-08-09T17:38:12.578Z,2.25
2022-08-09T17:40:34.787Z,3.28
2022-08-09T17:43:32.231Z,1.38
2022-08-09T17:46:05.949Z,3.90
2022-08-09T17:48:51.824Z,2.00
2022-08-09T17:53:52.771Z,5.90
2022-08-09T17:56:29.207Z,5.20
2022-08-09T17:59:11.782Z,1.58
2022-08-09T18:02:08.024Z,4.03
2022-08-09T18:04:30.972Z,4.00
2022-08-09T18:06:59.182Z,2.50
2022-08-09T18:09:40.036Z,2.83
2022-08-09T18:12:17.784Z,3.47
2022-08-09T18:14:54.941Z,1.98
2022-08-09T18:18:03.395Z,1.45
2022-08-09T18:20:56.207Z,3.05
2022-08-09T18:23:07.617Z,5.60
2022-08-09T18:25:50.913Z,2.20
2022-08-09T18:30:38.428Z,1.85
2022-08-09T18:31:14.676Z,2.15
2022-08-09T18:33:45.195Z,3.45
2022-08-09T18:36:25.749Z,1.40
2022-08-09T18:39:02.521Z,1.88
2022-08-09T18:41:34.176Z,1.50
2022-08-09T18:44:13.003Z,2.17
2022-08-09T18:46:46.759Z,2.13
2022-08-09T18:49:19.896Z,2.78
2022-08-09T18:51:55.544Z,1.98
2022-08-09T18:54:28.453Z,1.88
2022-08-09T18:57:05.502Z,4.55
2022-08-09T18:59:48.869Z,1.98
2022-08-09T19:02:20.041Z,3.38
2022-08-09T19:05:14.153Z,1.65
2022-08-09T19:07:37.525Z,3.08
2022-08-09T19:10:14.368Z,1.55
2022-08-09T19:12:45.635Z,1.77
2022-08-09T19:15:21.968Z,2.05
2022-08-09T19:17:59.690Z,1.67
2022-08-09T19:20:34.164Z,5.25
2022-08-09T19:23:08.284Z,1.90
2022-08-09T19:26:02.261Z,1.42
2022-08-09T19:28:37.990Z,2.58
2022-08-09T19:31:07.598Z,2.17
2022-08-09T19:33:35.302Z,2.22
2022-08-09T19:36:03.300Z,2.05
2022-08-09T19:38:34.145Z,2.50
2022-08-09T19:41:06.807Z,3.05
2022-08-09T19:43:57.837Z,2.65
2022-08-09T19:46:35.923Z,1.70
2022-08-09T19:50:09.646Z,1.60
2022-08-09T19:52:03.909Z,2.47
2022-08-09T19:54:31.209Z,3.33
2022-08-09T19:56:59.046Z,2.10
2022-08-09T19:59:58.828Z,4.28
2022-08-09T20:04:26.271Z,2.15
2022-08-09T20:05:10.316Z,2.65
2022-08-09T20:08:00.080Z,2.30
2022-08-09T20:10:36.303Z,1.80
2022-08-09T20:13:06.718Z,3.70
2022-08-09T20:16:37.682Z,3.00
2022-08-09T20:18:23.061Z,3.53
2022-08-09T20:21:05.441Z,3.92
2022-08-09T20:23:45.600Z,3.22
2022-08-09T20:26:13.337Z,2.78
2022-08-09T20:28:48.572Z,2.20
2022-08-09T20:31:17.964Z,2.67
2022-08-09T20:33:45.604Z,1.75
2022-08-09T20:36:13.340Z,2.88
2022-08-09T20:39:18.848Z,2.75
2022-08-09T20:41:35.073Z,3.80
2022-08-09T20:44:09.850Z,3.20
2022-08-09T20:46:42.711Z,2.88
2022-08-09T20:49:13.890Z,3.75
2022-08-09T20:51:42.953Z,3.83
2022-08-09T20:54:12.469Z,2.38
2022-08-09T20:56:41.044Z,3.03
2022-08-09T20:59:08.216Z,4.90
2022-08-09T21:01:50.558Z,2.47
2022-08-09T21:05:56.985Z,2.30
2022-08-09T21:07:12.851Z,2.50
2022-08-09T21:09:55.595Z,4.18
2022-08-09T21:15:14.233Z,5.95
2022-08-09T21:18:11.489Z,2.75
2022-08-09T21:20:31.843Z,2.80
2022-08-09T21:23:02.407Z,4.97
2022-08-09T21:25:56.185Z,5.13
2022-08-09T21:28:35.115Z,3.88
2022-08-09T21:31:16.212Z,3.97
2022-08-09T21:33:52.663Z,3.33
2022-08-09T21:36:28.042Z,6.75
2022-08-09T21:38:59.225Z,2.83
2022-08-09T21:41:59.877Z,2.80
2022-08-09T21:44:33.939Z,3.63
2022-08-09T21:47:04.936Z,2.80
2022-08-09T21:49:40.007Z,3.35
2022-08-09T21:52:17.488Z,3.22
2022-08-09T21:54:59.412Z,4.47
2022-08-09T21:57:38.438Z,3.85
2022-08-09T22:00:32.348Z,5.88
2022-08-09T22:03:12.763Z,5.18
2022-08-09T22:05:53.207Z,4.25
2022-08-09T22:08:24.761Z,4.05
2022-08-09T22:11:04.922Z,4.05
2022-08-09T22:13:42.350Z,4.45
2022-08-09T22:16:11.792Z,6.78
2022-08-09T22:18:52.295Z,4.15
2022-08-09T22:21:44.724Z,5.53
2022-08-09T22:24:16.973Z,5.25
2022-08-09T22:26:47.879Z,6.70
2022-08-09T22:29:28.869Z,3.38
2022-08-09T22:32:29.398Z,3.83
2022-08-09T22:35:02.259Z,4.47
2022-08-09T22:37:40.045Z,4.95
2022-08-09T22:40:09.929Z,3.78
2022-08-09T22:42:38.590Z,4.63
2022-08-09T22:48:13.131Z,4.38
2022-08-09T22:48:17.010Z,5.18
2022-08-09T22:50:42.657Z,4.15
2022-08-09T22:53:20.373Z,5.63
2022-08-09T22:56:30.916Z,3.78
2022-08-09T22:58:35.021Z,3.40
2022-08-09T23:01:04.752Z,4.88
2022-08-09T23:04:04.252Z,5.10
2022-08-09T23:06:35.158Z,4.13
2022-08-09T23:09:07.610Z,3.53
2022-08-09T23:11:35.313Z,4.88
2022-08-09T23:14:03.716Z,3.90
2022-08-09T23:16:31.818Z,8.30
2022-08-09T23:18:59.635Z,4.38
2022-08-09T23:21:32.750Z,4.43
2022-08-09T23:24:05.139Z,5.55
2022-08-09T23:26:35.854Z,4.90
2022-08-09T23:29:04.753Z,4.28
2022-08-09T23:31:32.041Z,4.15
2022-08-09T23:33:59.197Z,5.70
2022-08-09T23:36:27.188Z,4.88
2022-08-09T23:38:54.184Z,4.15
2022-08-09T23:41:27.845Z,5.32
2022-08-09T23:43:58.047Z,5.57
2022-08-09T23:46:25.290Z,4.13
2022-08-09T23:48:52.321Z,4.80
2022-08-09T23:51:19.436Z,4.15
2022-08-09T23:53:47.407Z,3.92
2022-08-09T23:56:18.201Z,5.63
2022-08-09T23:59:05.141Z,6.35
